createdAt,value
2022-08-12T00:00:09.979Z,23.50
2022-08-12T00:02:56.135Z,23.43
2022-08-12T00:06:01.708Z,23.45
2022-08-12T00:08:51.242Z,23.34
2022-08-12T00:11:37.128Z,23.47
2022-08-12T00:14:23.808Z,23.47
2022-08-12T00:17:09.887Z,23.51
2022-08-12T00:19:55.856Z,23.50
2022-08-12T00:22:42.124Z,23.51
2022-08-12T00:26:00.385Z,23.39
2022-08-12T00:28:35.573Z,23.28
2022-08-12T00:31:21.881Z,23.42
2022-08-12T00:34:08.009Z,23.31
2022-08-12T00:36:54.326Z,23.42
2022-08-12T00:39:40.408Z,23.31
2022-08-12T00:42:11.889Z,23.32
2022-08-12T00:44:42.483Z,23.20
2022-08-12T00:47:25.687Z,23.34
2022-08-12T00:49:55.643Z,23.27
2022-08-12T00:52:23.823Z,23.35
2022-08-12T00:54:57.553Z,23.21
2022-08-12T00:57:30.796Z,23.19
2022-08-12T01:00:12.108Z,23.21
2022-08-12T01:02:42.622Z,23.10
2022-08-12T01:05:34.064Z,23.20
2022-08-12T01:08:20.464Z,23.16
2022-08-12T01:11:07.573Z,22.98
2022-08-12T01:13:38.772Z,23.01
2022-08-12T01:16:08.405Z,22.94
2022-08-12T01:18:39.440Z,22.86
2022-08-12T01:21:26.553Z,22.85
2022-08-12T01:24:32.133Z,22.79
2022-08-12T01:27:01.402Z,22.91
2022-08-12T01:29:32.494Z,22.83
2022-08-12T01:32:05.409Z,22.75
2022-08-12T01:34:39.266Z,22.75
2022-08-12T01:37:09.097Z,22.58
2022-08-12T01:40:34.098Z,22.61
2022-08-12T01:42:51.274Z,22.21
2022-08-12T01:45:24.714Z,22.45
2022-08-12T01:48:16.758Z,22.41
2022-08-12T01:51:06.466Z,22.44
2022-08-12T01:53:50.452Z,22.45
2022-08-12T01:56:21.995Z,22.39
2022-08-12T01:59:12.358Z,22.22
2022-08-12T02:01:40.742Z,22.33
2022-08-12T02:04:50.801Z,22.35
2022-08-12T02:07:56.549Z,22.18
2022-08-12T02:11:10.135Z,22.20
2022-08-12T02:13:50.177Z,22.01
2022-08-12T02:16:51.112Z,22.11
2022-08-12T02:19:40.280Z,21.90
2022-08-12T02:22:38.881Z,22.00
2022-08-12T02:25:21.765Z,22.07
2022-08-12T02:27:52.273Z,22.05
2022-08-12T02:30:25.279Z,21.90
2022-08-12T02:33:04.995Z,21.84
2022-08-12T02:35:35.712Z,21.92
2022-08-12T02:38:06.446Z,21.83
2022-08-12T02:40:39.626Z,21.83
2022-08-12T02:43:28.605Z,21.78
2022-08-12T02:46:18.147Z,21.73
2022-08-12T02:48:52.707Z,21.64
2022-08-12T02:51:25.907Z,21.68
2022-08-12T02:54:04.785Z,21.82
2022-08-12T02:56:37.520Z,21.69
2022-08-12T02:59:06.858Z,21.64
2022-08-12T03:01:34.824Z,21.55
2022-08-12T03:04:05.522Z,21.50
2022-08-12T03:06:48.188Z,21.55
2022-08-12T03:09:16.498Z,21.45
2022-08-12T03:11:50.687Z,21.41
2022-08-12T03:14:18.552Z,21.38
2022-08-12T03:16:52.471Z,21.37
2022-08-12T03:19:21.051Z,21.32
2022-08-12T03:21:54.609Z,21.29
2022-08-12T03:24:38.844Z,21.40
2022-08-12T03:27:10.472Z,21.37
2022-08-12T03:29:49.741Z,21.33
2022-08-12T03:32:36.425Z,21.16
2022-08-12T03:35:09.390Z,21.24
2022-08-12T03:37:59.196Z,21.25
2022-08-12T03:41:16.586Z,20.99
2022-08-12T03:44:25.756Z,21.23
2022-08-12T03:47:20.125Z,21.04
2022-08-12T03:50:06.861Z,21.05
2022-08-12T03:52:52.908Z,20.98
2022-08-12T03:55:39.254Z,20.97
2022-08-12T03:58:25.307Z,20.98
2022-08-12T04:00:53.034Z,20.92
2022-08-12T04:03:39.319Z,21.08
2022-08-12T04:06:08.963Z,20.98
2022-08-12T04:08:37.055Z,20.94
2022-08-12T04:11:23.135Z,20.97
2022-08-12T04:13:51.396Z,20.97
2022-08-12T04:16:20.236Z,20.88
2022-08-12T04:18:47.887Z,20.94
2022-08-12T04:21:15.468Z,20.97
2022-08-12T04:23:47.660Z,21.02
2022-08-12T04:26:16.290Z,21.05
2022-08-12T04:28:44.426Z,20.96
2022-08-12T04:31:13.122Z,21.09
2022-08-12T04:33:42.398Z,21.01
2022-08-12T04:36:10.236Z,21.20
2022-08-12T04:38:39.085Z,21.11
2022-08-12T04:41:06.920Z,21.11
2022-08-12T04:44:00.462Z,21.12
2022-08-12T04:46:28.834Z,21.19
2022-08-12T04:48:58.080Z,21.17
2022-08-12T04:51:27.209Z,21.22
2022-08-12T04:53:54.566Z,21.33
2022-08-12T04:56:21.896Z,21.38
2022-08-12T04:58:52.558Z,21.46
2022-08-12T05:01:20.192Z,21.57
2022-08-12T05:03:49.368Z,21.51
2022-08-12T05:06:26.538Z,21.76
2022-08-12T05:08:55.594Z,21.85
2022-08-12T05:11:24.820Z,21.92
2022-08-12T05:14:00.580Z,21.80
2022-08-12T05:16:31.164Z,22.01
2022-08-12T05:19:00.875Z,22.09
2022-08-12T05:21:28.367Z,22.21
2022-08-12T05:23:55.692Z,22.18
2022-08-12T05:26:23.365Z,22.29
2022-08-12T05:28:52.224Z,22.41
2022-08-12T05:31:47.440Z,22.57
2022-08-12T05:34:08.169Z,22.73
2022-08-12T05:36:36.988Z,22.78
2022-08-12T05:39:04.348Z,22.93
2022-08-12T05:41:35.178Z,23.14
2022-08-12T05:44:05.058Z,23.37
2022-08-12T05:46:33.256Z,23.46
2022-08-12T05:49:01.379Z,23.55
2022-08-12T05:51:40.410Z,23.55
2022-08-12T05:54:11.094Z,23.55
2022-08-12T05:56:40.085Z,23.71
2022-08-12T05:59:11.924Z,24.03
2022-08-12T06:02:11.482Z,24.12
2022-08-12T06:04:27.348Z,24.17
2022-08-12T06:06:54.732Z,24.42
2022-08-12T06:09:22.814Z,24.56
2022-08-12T06:12:05.124Z,24.76
2022-08-12T06:14:36.428Z,24.81
2022-08-12T06:17:05.241Z,25.12
2022-08-12T06:20:25.895Z,25.31
2022-08-12T06:22:20.186Z,25.39
2022-08-12T06:24:49.699Z,25.35
2022-08-12T06:27:18.814Z,25.69
2022-08-12T06:30:09.806Z,25.84
2022-08-12T06:32:35.312Z,25.97
2022-08-12T06:35:24.010Z,26.12
2022-08-12T06:37:57.080Z,26.42
2022-08-12T06:40:43.922Z,26.26
2022-08-12T06:43:11.293Z,26.50
2022-08-12T06:45:46.742Z,26.65
2022-08-12T06:48:14.975Z,26.91
2022-08-12T06:50:44.425Z,26.73
2022-08-12T06:53:12.234Z,27.02
2022-08-12T06:55:57.981Z,27.13
2022-08-12T06:58:30.515Z,27.30
2022-08-12T07:00:59.279Z,27.38
2022-08-12T07:03:30.313Z,27.27
2022-08-12T07:06:03.103Z,27.28
2022-08-12T07:08:33.032Z,27.51
2022-08-12T07:11:05.202Z,27.63
2022-08-12T07:14:02.613Z,27.64
2022-08-12T07:16:51.912Z,27.78
2022-08-12T07:19:20.714Z,27.73
2022-08-12T07:22:01.848Z,27.99
2022-08-12T07:24:30.484Z,27.99
2022-08-12T07:26:58.273Z,28.19
2022-08-12T07:29:26.106Z,28.13
2022-08-12T07:32:13.683Z,28.16
2022-08-12T07:34:43.244Z,28.28
2022-08-12T07:37:10.581Z,28.38
2022-08-12T07:39:51.157Z,28.40
2022-08-12T07:42:25.578Z,28.41
2022-08-12T07:44:54.919Z,28.32
2022-08-12T07:47:22.974Z,28.36
2022-08-12T07:50:03.618Z,28.48
2022-08-12T07:52:34.744Z,28.45
2022-08-12T07:55:03.271Z,28.51
2022-08-12T07:57:32.582Z,28.42
2022-08-12T08:00:05.745Z,28.53
2022-08-12T08:02:35.767Z,28.36
2022-08-12T08:05:04.486Z,28.46
2022-08-12T08:07:31.948Z,28.55
2022-08-12T08:10:01.289Z,28.62
2022-08-12T08:12:48.093Z,28.76
2022-08-12T08:15:16.159Z,28.72
2022-08-12T08:18:26.273Z,28.93
2022-08-12T08:20:56.397Z,28.93
2022-08-12T08:23:46.395Z,28.83
2022-08-12T08:26:15.657Z,28.90
2022-08-12T08:28:43.632Z,29.07
2022-08-12T08:31:12.793Z,29.23
2022-08-12T08:34:05.103Z,29.16
2022-08-12T08:36:29.478Z,29.25
2022-08-12T08:38:58.628Z,29.35
2022-08-12T08:42:15.369Z,29.27
2022-08-12T08:44:38.276Z,29.42
2022-08-12T08:47:06.824Z,29.41
2022-08-12T08:49:37.285Z,29.50
2022-08-12T08:52:06.757Z,29.66
2022-08-12T08:54:34.377Z,29.69
2022-08-12T08:57:02.247Z,29.76
2022-08-12T08:59:29.932Z,29.88
2022-08-12T09:01:57.862Z,29.87
2022-08-12T09:05:11.944Z,29.83
2022-08-12T09:07:18.056Z,29.69
2022-08-12T09:10:03.902Z,30.01
2022-08-12T09:12:55.225Z,30.06
2022-08-12T09:15:34.901Z,30.22
2022-08-12T09:18:08.818Z,30.36
2022-08-12T09:20:38.629Z,30.38
2022-08-12T09:24:00.418Z,30.55
2022-08-12T09:25:57.194Z,30.42
2022-08-12T09:28:31.096Z,30.75
2022-08-12T09:31:00.093Z,30.62
2022-08-12T09:34:28.446Z,30.67
2022-08-12T09:36:30.948Z,30.74
2022-08-12T09:39:02.514Z,30.64
2022-08-12T09:42:54.108Z,30.63
2022-08-12T09:45:19.286Z,30.66
2022-08-12T09:47:59.012Z,30.78
2022-08-12T09:50:28.150Z,30.81
2022-08-12T09:53:15.545Z,30.86
2022-08-12T09:56:05.961Z,30.82
2022-08-12T09:58:57.158Z,30.69
2022-08-12T10:01:24.946Z,30.76
2022-08-12T10:04:05.609Z,30.62
2022-08-12T10:06:36.282Z,30.71
2022-08-12T10:09:08.291Z,30.67
2022-08-12T10:12:11.998Z,30.73
2022-08-12T10:14:49.964Z,30.77
2022-08-12T10:17:21.523Z,31.05
2022-08-12T10:19:51.785Z,31.10
2022-08-12T10:22:36.897Z,31.30
2022-08-12T10:26:34.650Z,31.04
2022-08-12T10:28:38.386Z,31.08
2022-08-12T10:31:06.723Z,31.00
2022-08-12T10:34:05.110Z,31.10
2022-08-12T10:36:40.357Z,31.03
2022-08-12T10:40:01.707Z,31.18
2022-08-12T10:42:29.566Z,31.22
2022-08-12T10:45:01.102Z,31.49
2022-08-12T10:48:16.102Z,31.39
2022-08-12T10:50:29.457Z,31.42
2022-08-12T10:53:09.096Z,31.52
2022-08-12T10:55:36.921Z,31.62
2022-08-12T10:58:14.491Z,31.80
2022-08-12T11:01:26.219Z,31.60
2022-08-12T11:04:35.528Z,31.56
2022-08-12T11:07:05.006Z,31.58
2022-08-12T11:09:42.082Z,31.47
2022-08-12T11:12:56.337Z,31.48
2022-08-12T11:15:14.703Z,31.33
2022-08-12T11:17:53.829Z,31.52
2022-08-12T11:20:24.442Z,31.58
2022-08-12T11:22:59.060Z,31.67
2022-08-12T11:25:42.293Z,31.86
2022-08-12T11:28:16.190Z,31.49
2022-08-12T11:30:44.891Z,31.27
2022-08-12T11:33:24.146Z,31.34
2022-08-12T11:36:18.296Z,31.14
2022-08-12T11:38:51.365Z,30.77
2022-08-12T11:41:20.722Z,30.53
2022-08-12T11:43:59.101Z,30.73
2022-08-12T11:46:26.864Z,30.87
2022-08-12T11:48:54.347Z,31.09
2022-08-12T11:51:22.088Z,30.95
2022-08-12T11:53:58.931Z,31.00
2022-08-12T11:56:38.834Z,31.24
2022-08-12T12:02:02.052Z,31.25
2022-08-12T12:04:32.949Z,31.31
2022-08-12T12:07:07.301Z,31.43
2022-08-12T12:09:53.319Z,31.42
2022-08-12T12:12:22.675Z,31.14
2022-08-12T12:14:54.812Z,31.23
2022-08-12T12:17:24.587Z,31.36
2022-08-12T12:19:55.256Z,31.36
2022-08-12T12:22:23.720Z,31.26
2022-08-12T12:24:59.076Z,31.22
2022-08-12T12:28:05.016Z,31.17
2022-08-12T12:30:37.607Z,31.06
2022-08-12T12:33:06.198Z,31.13
2022-08-12T12:36:19.881Z,31.13
2022-08-12T12:38:25.320Z,31.25
2022-08-12T12:40:53.368Z,31.05
2022-08-12T12:43:28.939Z,31.14
2022-08-12T12:46:09.840Z,31.41
2022-08-12T12:48:38.226Z,31.47
2022-08-12T12:51:48.142Z,31.54
2022-08-12T12:54:06.145Z,31.66
2022-08-12T12:56:41.838Z,31.67
2022-08-12T12:59:33.758Z,31.24
2022-08-12T13:02:07.767Z,31.41
2022-08-12T13:04:37.304Z,31.33
2022-08-12T13:07:06.508Z,31.40
2022-08-12T13:09:36.315Z,31.33
2022-08-12T13:12:08.785Z,31.28
2022-08-12T13:14:39.722Z,31.47
2022-08-12T13:17:11.216Z,31.60
2022-08-12T13:19:48.385Z,31.61
2022-08-12T13:22:21.324Z,31.55
2022-08-12T13:24:55.747Z,31.63
2022-08-12T13:27:35.486Z,31.80
2022-08-12T13:30:11.699Z,31.68
2022-08-12T13:32:57.357Z,31.57
2022-08-12T13:35:33.378Z,31.78
2022-08-12T13:38:02.723Z,31.88
2022-08-12T13:40:33.144Z,31.74
2022-08-12T13:43:01.902Z,31.81
2022-08-12T13:45:30.902Z,31.99
2022-08-12T13:48:06.400Z,32.03
2022-08-12T13:50:38.836Z,32.06
2022-08-12T13:53:24.076Z,31.95
2022-08-12T13:55:59.881Z,31.68
2022-08-12T13:58:30.952Z,31.68
2022-08-12T14:01:05.408Z,31.68
2022-08-12T14:03:50.351Z,31.71
2022-08-12T14:06:20.791Z,31.72
2022-08-12T14:08:51.226Z,31.76
2022-08-12T14:11:19.460Z,31.88
2022-08-12T14:14:03.350Z,32.00
2022-08-12T14:16:48.369Z,31.90
2022-08-12T14:19:21.785Z,32.07
2022-08-12T14:21:58.919Z,31.86
2022-08-12T14:24:36.961Z,31.60
2022-08-12T14:27:10.483Z,31.67
2022-08-12T14:30:05.083Z,31.66
2022-08-12T14:32:34.863Z,31.74
2022-08-12T14:35:09.530Z,31.86
2022-08-12T14:37:58.107Z,31.94
2022-08-12T14:40:29.156Z,31.97
2022-08-12T14:42:58.843Z,31.85
2022-08-12T14:45:44.565Z,31.93
2022-08-12T14:48:16.577Z,31.78
2022-08-12T14:51:03.031Z,31.79
2022-08-12T14:59:56.282Z,31.66
2022-08-12T15:02:20.748Z,31.64
2022-08-12T15:04:55.789Z,31.71
2022-08-12T15:07:33.626Z,31.45
2022-08-12T15:10:13.326Z,31.50
2022-08-12T15:12:41.515Z,31.49
2022-08-12T15:15:09.147Z,31.62
2022-08-12T15:17:38.798Z,31.47
2022-08-12T15:20:31.008Z,31.41
2022-08-12T15:22:56.630Z,31.60
2022-08-12T15:25:30.612Z,31.45
2022-08-12T15:28:20.365Z,31.58
2022-08-12T15:30:53.275Z,31.44
2022-08-12T15:33:24.095Z,31.36
2022-08-12T15:35:53.751Z,31.47
2022-08-12T15:38:25.010Z,31.53
2022-08-12T15:40:54.674Z,31.70
2022-08-12T15:43:51.381Z,31.62
2022-08-12T15:46:15.540Z,31.58
2022-08-12T15:48:47.462Z,31.51
2022-08-12T15:51:57.258Z,31.47
2022-08-12T15:54:31.360Z,31.43
2022-08-12T15:57:05.998Z,31.56
2022-08-12T16:00:04.100Z,31.55
2022-08-12T16:02:29.287Z,31.29
2022-08-12T16:04:57.837Z,31.38
2022-08-12T16:07:30.979Z,31.38
2022-08-12T16:10:06.951Z,31.45
2022-08-12T16:12:54.449Z,31.55
2022-08-12T16:15:26.463Z,31.36
2022-08-12T16:18:19.252Z,31.43
2022-08-12T16:20:46.923Z,31.51
2022-08-12T16:23:27.009Z,31.39
2022-08-12T16:26:06.105Z,31.41
2022-08-12T16:28:41.758Z,31.13
2022-08-12T16:31:13.307Z,31.01
2022-08-12T16:33:59.666Z,31.04
2022-08-12T16:36:29.500Z,30.76
2022-08-12T16:39:01.572Z,30.48
2022-08-12T16:41:38.167Z,30.32
2022-08-12T16:44:08.830Z,30.44
2022-08-12T16:46:37.770Z,30.19
2022-08-12T16:49:13.406Z,30.06
2022-08-12T16:51:45.877Z,30.01
2022-08-12T16:54:16.374Z,29.86
2022-08-12T16:56:57.873Z,29.92
2022-08-12T16:59:31.156Z,29.78
2022-08-12T17:02:31.108Z,29.74
2022-08-12T17:05:04.486Z,29.74
2022-08-12T17:07:37.956Z,29.70
2022-08-12T17:10:07.455Z,29.74
2022-08-12T17:12:37.591Z,29.67
2022-08-12T17:15:50.495Z,29.53
2022-08-12T17:18:39.749Z,29.52
2022-08-12T17:20:47.369Z,29.65
2022-08-12T17:23:19.335Z,29.57
2022-08-12T17:25:52.908Z,29.55
2022-08-12T17:28:22.570Z,29.64
2022-08-12T17:30:59.484Z,29.55
2022-08-12T17:33:33.497Z,29.51
2022-08-12T17:36:05.403Z,29.48
2022-08-12T17:38:34.699Z,29.41
2022-08-12T17:41:08.168Z,29.47
2022-08-12T17:43:58.196Z,29.44
2022-08-12T17:46:33.638Z,29.45
2022-08-12T17:49:18.849Z,29.49
2022-08-12T17:52:02.547Z,29.52
2022-08-12T17:54:31.311Z,29.53
2022-08-12T17:57:01.361Z,29.34
2022-08-12T17:59:48.086Z,29.38
2022-08-12T18:02:18.070Z,29.41
2022-08-12T18:05:05.051Z,29.38
2022-08-12T18:07:35.849Z,29.32
2022-08-12T18:10:05.253Z,29.32
2022-08-12T18:12:40.179Z,29.34
2022-08-12T18:15:26.785Z,29.36
2022-08-12T18:18:05.916Z,29.15
2022-08-12T18:20:45.152Z,29.14
2022-08-12T18:23:12.659Z,28.95
2022-08-12T18:26:12.573Z,28.95
2022-08-12T18:28:44.715Z,28.90
2022-08-12T18:31:18.875Z,28.77
2022-08-12T18:33:46.854Z,28.56
2022-08-12T18:36:14.607Z,28.57
2022-08-12T18:38:56.181Z,28.52
2022-08-12T18:41:34.139Z,28.53
2022-08-12T18:44:09.631Z,28.43
2022-08-12T18:46:42.694Z,28.40
2022-08-12T18:49:17.052Z,28.28
2022-08-12T18:51:55.314Z,28.22
2022-08-12T18:54:34.984Z,28.16
2022-08-12T18:57:16.490Z,28.09
2022-08-12T19:00:01.712Z,28.10
2022-08-12T19:02:40.532Z,28.01
2022-08-12T19:05:10.898Z,27.81
2022-08-12T19:07:49.202Z,27.75
2022-08-12T19:10:26.679Z,27.71
2022-08-12T19:13:18.543Z,27.52
2022-08-12T19:15:57.873Z,27.10
2022-08-12T19:18:29.972Z,27.30
2022-08-12T19:21:11.566Z,27.30
2022-08-12T19:23:43.495Z,27.30
2022-08-12T19:26:12.814Z,27.20
2022-08-12T19:28:41.341Z,27.06
2022-08-12T19:31:45.062Z,27.03
2022-08-12T19:38:02.719Z,26.98
2022-08-12T19:40:31.784Z,27.01
2022-08-12T19:43:19.303Z,26.86
2022-08-12T19:45:54.463Z,26.85
2022-08-12T19:48:30.439Z,26.84
2022-08-12T19:50:58.453Z,26.76
2022-08-12T19:53:30.097Z,26.85
2022-08-12T19:56:17.681Z,26.75
2022-08-12T19:58:46.193Z,26.58
2022-08-12T20:01:17.333Z,26.59
2022-08-12T20:03:57.608Z,26.58
2022-08-12T20:06:33.894Z,26.56
2022-08-12T20:09:04.190Z,26.57
2022-08-12T20:12:14.233Z,26.42
2022-08-12T20:14:19.852Z,26.37
2022-08-12T20:16:57.263Z,26.29
2022-08-12T20:20:05.565Z,26.22
2022-08-12T20:22:24.235Z,26.25
2022-08-12T20:25:10.342Z,26.17
2022-08-12T20:28:04.104Z,26.09
2022-08-12T20:30:37.895Z,26.00
2022-08-12T20:33:23.353Z,25.98
2022-08-12T20:36:06.211Z,25.90
2022-08-12T20:38:42.172Z,25.87
2022-08-12T20:41:19.405Z,25.74
2022-08-12T20:43:49.411Z,25.76
2022-08-12T20:46:19.212Z,25.66
2022-08-12T20:48:54.559Z,25.77
2022-08-12T20:51:23.183Z,25.69
2022-08-12T20:53:58.324Z,25.57
2022-08-12T20:56:34.274Z,25.58
2022-08-12T20:59:07.313Z,25.60
2022-08-12T21:01:46.632Z,25.32
2022-08-12T21:04:35.788Z,25.41
2022-08-12T21:07:08.305Z,25.38
2022-08-12T21:09:48.339Z,25.34
2022-08-12T21:12:27.855Z,25.34
2022-08-12T21:15:23.138Z,25.35
2022-08-12T21:18:10.619Z,25.30
2022-08-12T21:20:44.436Z,25.30
2022-08-12T21:23:13.716Z,25.23
2022-08-12T21:25:45.040Z,25.17
2022-08-12T21:28:19.200Z,25.23
2022-08-12T21:31:11.549Z,25.13
2022-08-12T21:33:58.675Z,25.20
2022-08-12T21:36:34.545Z,25.15
2022-08-12T21:39:18.400Z,25.12
2022-08-12T21:41:50.328Z,25.13
2022-08-12T21:45:44.397Z,25.09
2022-08-12T21:47:20.289Z,25.16
2022-08-12T21:50:03.149Z,25.14
2022-08-12T21:52:40.906Z,25.17
2022-08-12T21:55:18.135Z,25.05
2022-08-12T21:57:53.951Z,25.04
2022-08-12T22:00:32.346Z,25.03
2022-08-12T22:04:02.661Z,24.95
2022-08-12T22:06:25.968Z,24.91
2022-08-12T22:09:02.229Z,24.89
2022-08-12T22:11:42.407Z,24.82
2022-08-12T22:14:21.627Z,24.88
2022-08-12T22:16:54.686Z,24.88
2022-08-12T22:19:24.328Z,24.77
2022-08-12T22:21:54.668Z,24.79
2022-08-12T22:24:26.552Z,24.82
2022-08-12T22:27:18.002Z,24.79
2022-08-12T22:30:09.406Z,24.62
2022-08-12T22:32:51.259Z,24.63
2022-08-12T22:35:55.294Z,24.62
2022-08-12T22:38:24.938Z,24.73
2022-08-12T22:41:00.959Z,24.61
2022-08-12T22:43:59.820Z,24.63
2022-08-12T22:46:34.730Z,24.53
2022-08-12T22:49:02.070Z,24.52
2022-08-12T22:52:01.032Z,24.42
2022-08-12T22:54:35.148Z,24.56
2022-08-12T22:57:12.218Z,24.50
2022-08-12T22:59:55.533Z,24.40
2022-08-12T23:02:29.098Z,24.43
2022-08-12T23:04:57.956Z,24.43
2022-08-12T23:07:25.792Z,24.41
2022-08-12T23:09:53.708Z,24.39
2022-08-12T23:12:47.034Z,24.45
2022-08-12T23:15:16.731Z,24.50
2022-08-12T23:17:46.624Z,24.34
2022-08-12T23:20:15.015Z,24.34
2022-08-12T23:22:55.860Z,24.41
2022-08-12T23:25:23.575Z,24.56
2022-08-12T23:28:31.084Z,24.58
2022-08-12T23:31:04.637Z,24.73
2022-08-12T23:34:00.574Z,24.62
2022-08-12T23:36:39.430Z,24.57
2022-08-12T23:40:13.800Z,24.52
2022-08-12T23:42:17.387Z,24.54
2022-08-12T23:44:48.565Z,24.63
2022-08-12T23:47:21.346Z,24.62
2022-08-12T23:49:57.101Z,24.64
2022-08-12T23:52:34.068Z,24.67
2022-08-12T23:55:24.585Z,24.65
2022-08-12T23:58:21.104Z,24.68
